Portada
METAR-TAF:

METAR-TAF

Aeroports :

Cuenca, Equador

latitud: 02-53-22S, longitud: 078-59-04W, altitud: 2532 m

Observació

L'informe es va fer fa 48 minuts, a les 11:18 UTC
Vent 2 kt del Est
Temperatura 13°C
Humitat 100%
Pressió 1027 hPa
Visibilitat: 4000 m
Núvols disperses a una alçada de 500 ft
Cel ennuvolat a una alçada de 2000 ft
boira en bancs

METAR: SECU 281118Z 10002KT 6000 4000N BCFG SCT005 BKN020 13/13 Q1027

Hora: 07:06 (12:06 UTC)


TAF: manca

Observacions i pronòstics meteorològics de més de 4000 aeroports (METAR i TAF).

Les estacions disponibles són els punts grocs i vermells al mapa.

Posi el ratolí al punt desitjat per veure el nom de l'estació.

Feu clic per veure les observacions i els pronòstics meteorològics.

Per canviar el mapa: feu clic els botons verds amb una creu de color negre per apropar; al botó verd amb un guió per allunyar la imatge; o en les fletxes verdes per a mapes adjacents.


METAR-TAF: